createdAt,value
2019-03-11T00:01:18.403Z,2.50
2019-03-11T00:03:44.806Z,3.03
2019-03-11T00:06:11.246Z,2.47
2019-03-11T00:08:37.645Z,2.40
2019-03-11T00:11:04.158Z,1.73
2019-03-11T00:13:30.876Z,1.87
2019-03-11T00:15:57.423Z,1.60
2019-03-11T00:18:23.917Z,1.70
2019-03-11T00:20:50.346Z,1.60
2019-03-11T00:23:16.911Z,1.40
2019-03-11T00:25:43.425Z,1.60
2019-03-11T00:28:09.940Z,2.00
2019-03-11T00:30:36.413Z,1.60
2019-03-11T00:33:03.037Z,1.70
2019-03-11T00:35:29.537Z,1.30
2019-03-11T00:37:56.133Z,1.60
2019-03-11T00:40:22.518Z,1.50
2019-03-11T00:42:48.878Z,1.37
2019-03-11T00:45:15.436Z,1.90
2019-03-11T00:47:42.078Z,1.40
2019-03-11T00:50:10.180Z,1.90
2019-03-11T00:52:36.996Z,2.03
2019-03-11T00:55:10.247Z,2.10
2019-03-11T00:57:36.851Z,2.10
2019-03-11T01:00:29.468Z,2.10
2019-03-11T01:02:56.109Z,2.40
2019-03-11T01:05:22.725Z,2.70
2019-03-11T01:07:49.358Z,2.13
2019-03-11T01:10:15.756Z,2.93
2019-03-11T01:12:42.206Z,2.53
2019-03-11T01:15:10.112Z,2.40
2019-03-11T01:17:36.611Z,2.03
2019-03-11T01:20:07.570Z,2.60
2019-03-11T01:22:34.214Z,2.03
2019-03-11T01:25:00.729Z,2.90
2019-03-11T01:27:27.234Z,2.83
2019-03-11T01:29:53.626Z,2.63
2019-03-11T01:32:20.067Z,3.07
2019-03-11T01:34:46.799Z,2.77
2019-03-11T01:37:13.197Z,2.70
2019-03-11T01:39:39.593Z,2.90
2019-03-11T01:42:05.890Z,2.50
2019-03-11T01:44:32.340Z,2.60
2019-03-11T01:46:58.844Z,2.37
2019-03-11T01:49:25.400Z,2.87
2019-03-11T01:51:51.677Z,2.33
2019-03-11T01:54:18.201Z,2.80
2019-03-11T01:56:44.474Z,3.20
2019-03-11T01:59:10.897Z,3.07
2019-03-11T02:01:37.305Z,2.60
2019-03-11T02:04:03.812Z,2.80
2019-03-11T02:06:30.297Z,2.73
2019-03-11T02:08:56.806Z,2.80
2019-03-11T02:11:23.228Z,3.13
2019-03-11T02:13:49.647Z,3.53
2019-03-11T02:16:16.125Z,3.20
2019-03-11T02:18:42.747Z,3.40
2019-03-11T02:21:09.172Z,3.27
2019-03-11T02:23:35.583Z,3.37
2019-03-11T02:26:02.247Z,3.30
2019-03-11T02:28:28.856Z,4.03
2019-03-11T02:30:55.297Z,2.90
2019-03-11T02:33:21.558Z,3.00
2019-03-11T02:35:47.865Z,2.70
2019-03-11T02:38:14.286Z,2.90
2019-03-11T02:40:40.665Z,2.77
2019-03-11T02:43:07.188Z,2.80
2019-03-11T02:45:33.668Z,3.33
2019-03-11T02:48:00.296Z,2.90
2019-03-11T02:50:26.783Z,2.90
2019-03-11T02:52:53.155Z,2.77
2019-03-11T02:55:19.527Z,3.23
2019-03-11T02:57:46.022Z,3.17
2019-03-11T03:00:17.829Z,3.00
2019-03-11T03:03:04.353Z,3.30
2019-03-11T03:05:32.676Z,3.07
2019-03-11T03:07:59.105Z,2.73
2019-03-11T03:10:25.504Z,2.87
2019-03-11T03:12:52.058Z,3.23
2019-03-11T03:15:18.604Z,3.07
2019-03-11T03:17:45.126Z,3.40
2019-03-11T03:20:14.005Z,3.60
2019-03-11T03:22:40.297Z,3.27
2019-03-11T03:25:09.619Z,3.20
2019-03-11T03:27:36.322Z,3.37
2019-03-11T03:30:19.308Z,3.30
2019-03-11T03:32:46.176Z,3.30
2019-03-11T03:35:12.784Z,3.50
2019-03-11T03:37:39.331Z,3.50
2019-03-11T03:40:09.537Z,3.60
2019-03-11T03:42:36.102Z,3.50
2019-03-11T03:45:21.059Z,3.67
2019-03-11T03:47:47.743Z,2.90
2019-03-11T03:50:14.159Z,3.20
2019-03-11T03:52:40.566Z,2.97
2019-03-11T03:55:07.074Z,3.23
2019-03-11T03:57:33.503Z,3.17
2019-03-11T03:59:59.800Z,2.67
2019-03-11T04:02:26.184Z,2.40
2019-03-11T04:04:52.762Z,3.10
2019-03-11T04:07:19.096Z,2.90
2019-03-11T04:09:45.494Z,2.70
2019-03-11T04:12:11.990Z,2.67
2019-03-11T04:14:38.506Z,2.50
2019-03-11T04:17:05.087Z,3.13
2019-03-11T04:19:31.716Z,3.03
2019-03-11T04:21:58.518Z,2.93
2019-03-11T04:24:25.139Z,2.93
2019-03-11T04:26:52.511Z,2.33
2019-03-11T04:29:18.945Z,2.97
2019-03-11T04:31:45.432Z,2.70
2019-03-11T04:34:11.888Z,3.03
2019-03-11T04:36:38.405Z,3.03
2019-03-11T04:39:05.072Z,2.80
2019-03-11T04:41:31.435Z,2.90
2019-03-11T04:43:57.730Z,3.33
2019-03-11T04:46:24.161Z,3.63
2019-03-11T04:48:50.742Z,3.17
2019-03-11T04:51:17.192Z,3.60
2019-03-11T04:53:43.624Z,3.40
2019-03-11T04:56:10.048Z,3.10
2019-03-11T04:58:36.677Z,3.73
2019-03-11T05:01:03.191Z,3.73
2019-03-11T05:03:29.677Z,3.37
2019-03-11T05:05:56.040Z,3.60
2019-03-11T05:08:22.601Z,3.30
2019-03-11T05:10:49.001Z,2.90
2019-03-11T05:13:15.397Z,3.10
2019-03-11T05:15:41.921Z,2.70
2019-03-11T05:18:08.427Z,2.50
2019-03-11T05:20:34.731Z,3.13
2019-03-11T05:23:01.214Z,3.20
2019-03-11T05:25:27.810Z,2.90
2019-03-11T05:27:54.232Z,2.80
2019-03-11T05:30:20.874Z,2.70
2019-03-11T05:32:47.374Z,2.60
2019-03-11T05:35:13.806Z,3.23
2019-03-11T05:37:40.637Z,3.03
2019-03-11T05:40:17.823Z,2.90
2019-03-11T05:42:44.473Z,2.80
2019-03-11T05:45:14.792Z,3.13
2019-03-11T05:47:41.127Z,3.83
2019-03-11T05:50:15.286Z,3.23
2019-03-11T05:52:42.251Z,3.03
2019-03-11T05:55:10.561Z,2.90
2019-03-11T05:57:36.992Z,3.57
2019-03-11T06:00:16.652Z,3.03
2019-03-11T06:02:43.045Z,3.57
2019-03-11T06:05:09.772Z,3.30
2019-03-11T06:07:36.335Z,3.90
2019-03-11T06:10:11.859Z,4.00
2019-03-11T06:12:38.125Z,3.57
2019-03-11T06:15:13.266Z,3.50
2019-03-11T06:17:39.694Z,3.57
2019-03-11T06:20:14.757Z,4.03
2019-03-11T06:22:41.329Z,3.47
2019-03-11T06:25:07.980Z,2.87
2019-03-11T06:27:34.487Z,3.00
2019-03-11T06:30:01.128Z,3.53
2019-03-11T06:32:27.754Z,4.37
2019-03-11T06:34:54.288Z,4.60
2019-03-11T06:37:20.813Z,5.00
2019-03-11T06:39:47.228Z,4.93
2019-03-11T06:42:13.746Z,6.00
2019-03-11T06:44:40.239Z,5.67
2019-03-11T06:47:06.772Z,5.70
2019-03-11T06:49:33.412Z,6.33
2019-03-11T06:51:59.735Z,6.80
2019-03-11T06:54:26.171Z,6.30
2019-03-11T06:56:52.671Z,6.10
2019-03-11T06:59:19.156Z,6.03
2019-03-11T07:01:45.710Z,6.50
2019-03-11T07:04:12.105Z,6.47
2019-03-11T07:06:38.618Z,6.57
2019-03-11T07:09:06.971Z,5.30
2019-03-11T07:11:33.476Z,5.97
2019-03-11T07:13:59.765Z,6.17
2019-03-11T07:16:26.170Z,6.10
2019-03-11T07:18:52.716Z,5.87
2019-03-11T07:21:19.140Z,6.73
2019-03-11T07:23:45.458Z,6.40
2019-03-11T07:26:11.882Z,6.30
2019-03-11T07:28:38.194Z,6.67
2019-03-11T07:31:04.782Z,7.07
2019-03-11T07:33:31.261Z,7.40
2019-03-11T07:35:57.862Z,7.57
2019-03-11T07:38:24.265Z,6.60
2019-03-11T07:40:50.910Z,7.20
2019-03-11T07:43:17.380Z,7.50
2019-03-11T07:45:44.007Z,8.10
2019-03-11T07:48:10.362Z,8.93
2019-03-11T07:50:36.852Z,8.93
2019-03-11T07:53:03.573Z,8.63
2019-03-11T07:55:30.063Z,10.13
2019-03-11T07:57:56.363Z,9.93
2019-03-11T08:00:22.956Z,9.67
2019-03-11T08:02:49.387Z,10.67
2019-03-11T08:05:15.999Z,9.43
2019-03-11T08:07:42.466Z,10.43
2019-03-11T08:10:20.446Z,8.53
2019-03-11T08:12:46.852Z,9.20
2019-03-11T08:15:14.838Z,9.73
2019-03-11T08:17:41.261Z,9.67
2019-03-11T08:20:10.499Z,9.07
2019-03-11T08:22:36.913Z,9.07
2019-03-11T08:25:06.831Z,9.00
2019-03-11T08:27:33.512Z,9.03
2019-03-11T08:29:59.967Z,8.73
2019-03-11T08:32:26.582Z,9.27
2019-03-11T08:34:52.911Z,8.50
2019-03-11T08:37:19.228Z,8.70
2019-03-11T08:39:45.567Z,8.13
2019-03-11T08:42:12.095Z,8.07
2019-03-11T08:44:38.513Z,8.23
2019-03-11T08:47:05.117Z,7.53
2019-03-11T08:49:31.662Z,7.77
2019-03-11T08:51:58.061Z,7.00
2019-03-11T08:54:24.407Z,7.47
2019-03-11T08:56:50.790Z,6.80
2019-03-11T08:59:17.209Z,6.83
2019-03-11T09:01:43.692Z,7.10
2019-03-11T09:04:10.144Z,7.33
2019-03-11T09:06:36.672Z,6.07
2019-03-11T09:09:05.697Z,5.60
2019-03-11T09:11:32.331Z,6.47
2019-03-11T09:13:58.717Z,5.77
2019-03-11T09:16:25.157Z,5.83
2019-03-11T09:18:51.687Z,5.90
2019-03-11T09:21:18.333Z,6.03
2019-03-11T09:23:44.928Z,6.60
2019-03-11T09:26:11.437Z,6.47
2019-03-11T09:28:37.857Z,6.00
2019-03-11T09:31:04.455Z,5.10
2019-03-11T09:33:30.946Z,6.27
2019-03-11T09:35:57.600Z,5.83
2019-03-11T09:38:23.989Z,6.90
2019-03-11T09:40:50.407Z,6.27
2019-03-11T09:43:16.928Z,5.50
2019-03-11T09:45:43.392Z,6.10
2019-03-11T09:48:09.929Z,5.83
2019-03-11T09:50:36.419Z,5.87
2019-03-11T09:53:02.968Z,6.10
2019-03-11T09:55:29.668Z,5.37
2019-03-11T09:57:56.331Z,5.37
2019-03-11T10:00:28.873Z,4.30
2019-03-11T10:02:55.600Z,5.00
2019-03-11T10:05:22.198Z,5.07
2019-03-11T10:07:49.174Z,4.80
2019-03-11T10:10:24.821Z,5.47
2019-03-11T10:12:51.432Z,4.83
2019-03-11T10:15:20.840Z,5.30
2019-03-11T10:17:47.357Z,4.83
2019-03-11T10:20:17.942Z,5.03
2019-03-11T10:22:44.983Z,4.43
2019-03-11T10:25:14.109Z,5.40
2019-03-11T10:27:40.728Z,5.47
2019-03-11T10:30:12.641Z,6.03
2019-03-11T10:32:41.020Z,5.40
2019-03-11T10:35:30.218Z,5.20
2019-03-11T10:37:39.333Z,5.17
2019-03-11T10:40:11.369Z,5.23
2019-03-11T10:42:37.964Z,5.87
2019-03-11T10:45:08.492Z,5.93
2019-03-11T10:47:35.092Z,4.80
2019-03-11T10:50:01.832Z,5.60
2019-03-11T10:52:28.239Z,5.07
2019-03-11T10:54:54.661Z,5.47
2019-03-11T10:57:21.278Z,5.10
2019-03-11T10:59:47.839Z,4.90
2019-03-11T11:02:14.417Z,5.10
2019-03-11T11:04:42.038Z,5.73
2019-03-11T11:07:08.531Z,5.87
2019-03-11T11:09:35.231Z,6.60
2019-03-11T11:12:01.751Z,6.60
2019-03-11T11:14:28.334Z,5.83
2019-03-11T11:16:54.920Z,5.43
2019-03-11T11:19:21.674Z,5.50
2019-03-11T11:21:48.279Z,5.60
2019-03-11T11:24:14.824Z,4.87
2019-03-11T11:26:41.400Z,4.20
2019-03-11T11:29:07.776Z,3.40
2019-03-11T11:31:34.249Z,2.90
2019-03-11T11:34:00.785Z,3.10
2019-03-11T11:36:27.314Z,3.00
2019-03-11T11:38:53.958Z,3.47
2019-03-11T11:41:20.579Z,3.87
2019-03-11T11:43:47.010Z,3.47
2019-03-11T11:46:13.634Z,3.10
2019-03-11T11:48:40.259Z,3.13
2019-03-11T11:51:07.026Z,2.30
2019-03-11T11:53:33.679Z,3.20
2019-03-11T11:56:00.323Z,3.03
2019-03-11T11:58:26.853Z,3.00
2019-03-11T12:00:53.432Z,2.90
2019-03-11T12:03:19.764Z,3.17
2019-03-11T12:05:46.458Z,3.47
2019-03-11T12:08:13.128Z,3.30
2019-03-11T12:10:39.622Z,3.80
2019-03-11T12:13:06.067Z,4.13
2019-03-11T12:15:32.674Z,3.37
2019-03-11T12:17:59.404Z,2.97
2019-03-11T12:20:29.058Z,2.70
2019-03-11T12:22:55.709Z,3.23
2019-03-11T12:25:22.533Z,3.40
2019-03-11T12:27:53.996Z,3.20
2019-03-11T12:30:32.042Z,3.07
2019-03-11T12:32:58.523Z,2.70
2019-03-11T12:35:25.632Z,2.80
2019-03-11T12:37:52.386Z,3.10
2019-03-11T12:40:19.399Z,2.50
2019-03-11T12:42:46.163Z,2.27
2019-03-11T12:45:23.200Z,2.23
2019-03-11T12:47:49.865Z,2.50
2019-03-11T12:50:29.664Z,2.63
2019-03-11T12:52:56.087Z,2.63
2019-03-11T12:55:22.723Z,2.97
2019-03-11T12:57:49.335Z,2.40
2019-03-11T13:00:18.252Z,2.27
2019-03-11T13:02:44.839Z,2.97
2019-03-11T13:05:11.518Z,3.17
2019-03-11T13:07:38.816Z,3.07
2019-03-11T13:10:21.330Z,2.83
2019-03-11T13:12:48.084Z,3.47
2019-03-11T13:15:15.703Z,2.83
2019-03-11T13:17:42.338Z,2.80
2019-03-11T13:20:33.806Z,2.90
2019-03-11T13:23:00.585Z,3.00
2019-03-11T13:25:27.170Z,2.50
2019-03-11T13:27:53.818Z,2.67
2019-03-11T13:30:20.447Z,3.10
2019-03-11T13:32:47.050Z,2.80
2019-03-11T13:35:13.774Z,3.50
2019-03-11T13:37:40.392Z,3.13
2019-03-11T13:40:09.495Z,2.57
2019-03-11T13:42:36.169Z,2.80
2019-03-11T13:45:04.888Z,2.97
2019-03-11T13:47:31.632Z,2.67
2019-03-11T13:49:58.107Z,3.30
2019-03-11T13:52:24.760Z,2.53
2019-03-11T13:54:51.379Z,2.60
2019-03-11T13:57:17.931Z,3.00
2019-03-11T13:59:44.356Z,2.57
2019-03-11T14:02:11.061Z,2.17
2019-03-11T14:04:37.467Z,3.17
2019-03-11T14:07:04.177Z,2.77
2019-03-11T14:09:30.782Z,2.53
2019-03-11T14:11:57.192Z,2.97
2019-03-11T14:14:23.727Z,3.13
2019-03-11T14:16:50.339Z,2.63
2019-03-11T14:19:16.854Z,2.50
2019-03-11T14:21:43.549Z,3.30
2019-03-11T14:24:10.894Z,2.80
2019-03-11T14:26:37.445Z,2.83
2019-03-11T14:29:04.171Z,2.60
2019-03-11T14:31:30.821Z,2.63
2019-03-11T14:33:57.352Z,2.37
2019-03-11T14:36:24.063Z,2.47
2019-03-11T14:38:50.677Z,2.13
2019-03-11T14:41:17.330Z,2.70
2019-03-11T14:43:43.853Z,2.43
2019-03-11T14:46:10.445Z,2.73
2019-03-11T14:48:37.106Z,2.80
2019-03-11T14:51:03.745Z,2.10
2019-03-11T14:53:30.294Z,2.17
2019-03-11T14:55:56.850Z,2.00
2019-03-11T14:58:29.331Z,2.40
2019-03-11T15:00:52.094Z,2.50
2019-03-11T15:03:18.548Z,2.20
2019-03-11T15:05:45.106Z,2.67
2019-03-11T15:08:12.810Z,2.63
2019-03-11T15:10:39.699Z,2.43
2019-03-11T15:13:06.495Z,2.60
2019-03-11T15:15:33.120Z,2.23
2019-03-11T15:17:59.869Z,2.47
2019-03-11T15:20:26.604Z,2.50
2019-03-11T15:22:53.271Z,3.10
2019-03-11T15:25:19.963Z,1.87
2019-03-11T15:27:46.874Z,2.60
2019-03-11T15:30:21.066Z,2.57
2019-03-11T15:32:47.950Z,3.10
2019-03-11T15:35:17.266Z,2.87
2019-03-11T15:37:43.882Z,2.60
2019-03-11T15:40:13.442Z,2.80
2019-03-11T15:42:40.179Z,2.57
2019-03-11T15:45:10.845Z,2.93
2019-03-11T15:47:37.464Z,2.50
2019-03-11T15:50:27.131Z,2.47
2019-03-11T15:52:53.803Z,2.17
2019-03-11T15:55:20.568Z,2.77
2019-03-11T15:57:47.195Z,2.80
2019-03-11T16:00:20.727Z,2.60
2019-03-11T16:02:47.640Z,2.03
2019-03-11T16:05:17.658Z,3.13
2019-03-11T16:07:44.418Z,2.27
2019-03-11T16:10:17.050Z,2.80
2019-03-11T16:12:42.029Z,3.00
2019-03-11T16:15:10.516Z,2.60
2019-03-11T16:17:37.220Z,3.00
2019-03-11T16:20:08.993Z,2.57
2019-03-11T16:22:35.834Z,2.50
2019-03-11T16:25:05.584Z,3.00
2019-03-11T16:27:32.349Z,2.80
2019-03-11T16:29:58.971Z,2.60
2019-03-11T16:32:25.640Z,2.90
2019-03-11T16:34:52.438Z,2.43
2019-03-11T16:37:19.133Z,3.10
2019-03-11T16:39:45.967Z,2.90
2019-03-11T16:42:12.709Z,2.20
2019-03-11T16:44:39.388Z,2.37
2019-03-11T16:47:06.281Z,2.90
2019-03-11T16:49:32.805Z,2.43
2019-03-11T16:51:59.540Z,3.00
2019-03-11T16:54:26.246Z,2.20
2019-03-11T16:56:53.095Z,2.13
2019-03-11T16:59:19.789Z,2.37
2019-03-11T17:01:46.575Z,2.53
2019-03-11T17:04:13.112Z,1.80
2019-03-11T17:06:39.961Z,2.10
2019-03-11T17:09:07.549Z,2.17
2019-03-11T17:11:34.270Z,2.50
2019-03-11T17:14:00.920Z,2.60
2019-03-11T17:16:27.790Z,3.50
2019-03-11T17:18:54.529Z,2.87
2019-03-11T17:21:21.301Z,2.30
2019-03-11T17:23:47.995Z,2.10
2019-03-11T17:26:14.816Z,3.07
2019-03-11T17:28:41.351Z,2.43
2019-03-11T17:31:08.834Z,2.70
2019-03-11T17:33:35.673Z,2.87
2019-03-11T17:36:02.909Z,2.60
2019-03-11T17:38:30.301Z,2.57
2019-03-11T17:40:57.151Z,2.73
2019-03-11T17:43:23.931Z,3.00
2019-03-11T17:45:50.725Z,2.93
2019-03-11T17:48:18.763Z,2.60
2019-03-11T17:50:45.646Z,2.90
2019-03-11T17:53:19.790Z,3.20
2019-03-11T17:55:41.940Z,2.47
2019-03-11T17:58:09.678Z,3.17
2019-03-11T18:00:38.249Z,2.63
2019-03-11T18:03:05.109Z,3.13
2019-03-11T18:05:31.881Z,3.20
2019-03-11T18:07:58.665Z,2.87
2019-03-11T18:10:25.473Z,3.80
2019-03-11T18:12:52.143Z,3.13
2019-03-11T18:15:18.914Z,3.27
2019-03-11T18:17:45.664Z,3.20
2019-03-11T18:20:15.272Z,3.10
2019-03-11T18:22:42.084Z,2.73
2019-03-11T18:25:13.229Z,2.83
2019-03-11T18:27:39.850Z,2.70
2019-03-11T18:30:20.102Z,3.10
2019-03-11T18:32:47.205Z,2.40
2019-03-11T18:35:14.566Z,3.03
2019-03-11T18:37:41.390Z,2.90
2019-03-11T18:40:12.093Z,3.77
2019-03-11T18:42:39.008Z,3.30
2019-03-11T18:45:09.442Z,3.30
2019-03-11T18:47:36.156Z,2.60
2019-03-11T18:50:07.417Z,2.90
2019-03-11T18:52:34.069Z,2.90
2019-03-11T18:55:00.895Z,3.00
2019-03-11T18:57:27.557Z,3.00
2019-03-11T18:59:54.218Z,2.67
2019-03-11T19:02:21.153Z,3.20
2019-03-11T19:04:48.916Z,2.67
2019-03-11T19:07:15.953Z,2.57
2019-03-11T19:09:42.801Z,2.87
2019-03-11T19:12:10.054Z,3.27
2019-03-11T19:14:37.127Z,2.70
2019-03-11T19:17:04.927Z,2.60
2019-03-11T19:19:32.198Z,3.30
2019-03-11T19:21:58.891Z,3.00
2019-03-11T19:24:25.785Z,3.50
2019-03-11T19:26:55.864Z,4.07
2019-03-11T19:29:22.735Z,2.77
2019-03-11T19:31:51.752Z,3.40
2019-03-11T19:34:18.840Z,3.50
2019-03-11T19:36:46.041Z,3.30
2019-03-11T19:39:15.195Z,3.83
2019-03-11T19:41:42.619Z,3.73
2019-03-11T19:44:09.666Z,2.97
2019-03-11T19:46:36.634Z,3.67
2019-03-11T19:49:03.722Z,3.23
2019-03-11T19:51:31.538Z,3.70
2019-03-11T19:53:58.138Z,3.30
2019-03-11T19:56:25.258Z,3.83
2019-03-11T19:58:52.382Z,3.47
2019-03-11T20:01:19.081Z,3.57
2019-03-11T20:03:45.982Z,3.57
2019-03-11T20:06:13.323Z,3.70
2019-03-11T20:08:40.419Z,4.13
2019-03-11T20:11:07.412Z,3.80
2019-03-11T20:13:36.619Z,3.37
2019-03-11T20:16:03.225Z,3.03
2019-03-11T20:18:30.083Z,3.10
2019-03-11T20:20:56.900Z,3.90
2019-03-11T20:23:23.814Z,3.60
2019-03-11T20:25:50.383Z,3.47
2019-03-11T20:28:17.278Z,4.17
2019-03-11T20:30:45.554Z,3.00
2019-03-11T20:33:12.518Z,3.30
2019-03-11T20:35:39.579Z,3.33
2019-03-11T20:38:06.325Z,3.73
2019-03-11T20:40:33.094Z,3.43
2019-03-11T20:42:59.924Z,3.70
2019-03-11T20:45:26.707Z,4.50
2019-03-11T20:47:53.939Z,3.87
2019-03-11T20:50:21.116Z,3.43
2019-03-11T20:52:48.172Z,4.60
2019-03-11T20:55:17.291Z,3.60
2019-03-11T20:57:44.292Z,4.40
2019-03-11T21:00:21.332Z,3.30
2019-03-11T21:02:48.345Z,4.30
2019-03-11T21:05:28.785Z,5.10
2019-03-11T21:07:55.662Z,3.43
2019-03-11T21:10:23.017Z,4.47
2019-03-11T21:12:50.031Z,4.37
2019-03-11T21:15:17.167Z,3.77
2019-03-11T21:17:44.304Z,4.23
2019-03-11T21:20:17.542Z,3.60
2019-03-11T21:22:44.612Z,4.10
2019-03-11T21:25:20.044Z,3.87
2019-03-11T21:27:46.977Z,3.30
2019-03-11T21:30:21.019Z,3.53
2019-03-11T21:32:48.076Z,2.90
2019-03-11T21:35:15.150Z,3.53
2019-03-11T21:37:42.053Z,3.67
2019-03-11T21:40:18.504Z,3.20
2019-03-11T21:42:45.730Z,3.70
2019-03-11T21:45:14.355Z,4.83
2019-03-11T21:47:41.223Z,4.63
2019-03-11T21:50:28.581Z,4.07
2019-03-11T21:52:55.479Z,2.50
2019-03-11T21:55:22.142Z,3.67
2019-03-11T21:57:49.280Z,3.20
2019-03-11T22:00:32.882Z,3.23
2019-03-11T22:02:49.736Z,2.87
2019-03-11T22:05:16.441Z,3.33
2019-03-11T22:07:43.235Z,3.07
2019-03-11T22:10:19.919Z,3.13
2019-03-11T22:12:46.645Z,3.43
2019-03-11T22:15:21.515Z,3.13
2019-03-11T22:17:48.123Z,3.43
2019-03-11T22:20:16.049Z,3.30
2019-03-11T22:22:43.021Z,3.73
2019-03-11T22:25:18.104Z,3.70
2019-03-11T22:27:44.883Z,4.03
2019-03-11T22:30:19.325Z,3.90
2019-03-11T22:32:46.034Z,4.17
2019-03-11T22:35:13.513Z,4.03
2019-03-11T22:37:41.349Z,4.20
2019-03-11T22:40:13.079Z,4.43
2019-03-11T22:42:39.686Z,4.13
2019-03-11T22:45:11.731Z,4.27
2019-03-11T22:47:38.553Z,5.33
2019-03-11T22:50:08.792Z,5.10
2019-03-11T22:52:35.328Z,4.80
2019-03-11T22:55:03.061Z,4.80
2019-03-11T22:57:29.964Z,5.20
2019-03-11T22:59:56.735Z,5.70
2019-03-11T23:02:23.277Z,4.80
2019-03-11T23:04:49.809Z,4.77
2019-03-11T23:07:16.421Z,5.20
2019-03-11T23:09:42.882Z,4.73
2019-03-11T23:12:09.479Z,5.20
2019-03-11T23:14:36.046Z,5.27
2019-03-11T23:17:02.777Z,4.57
2019-03-11T23:19:29.289Z,4.57
2019-03-11T23:21:55.727Z,4.17
2019-03-11T23:24:22.207Z,5.00
2019-03-11T23:26:48.865Z,4.80
2019-03-11T23:29:15.395Z,4.90
2019-03-11T23:31:42.051Z,4.70
2019-03-11T23:34:08.342Z,4.73
2019-03-11T23:36:34.948Z,5.50
2019-03-11T23:39:01.535Z,4.47
2019-03-11T23:41:29.211Z,4.87
2019-03-11T23:43:56.020Z,4.27
2019-03-11T23:46:22.478Z,4.33
2019-03-11T23:48:48.996Z,4.43
2019-03-11T23:51:15.659Z,4.60
2019-03-11T23:53:42.229Z,4.70
2019-03-11T23:56:08.700Z,3.97
2019-03-11T23:58:35.168Z,5.00
